DLZ weather

Delaware Municipal Airport
Delaware, Ohio, United States

Public forecast

Using degrees Fahrenheit for public forecast. Weather courtesy of forecast.io.

METAR (pilot weather report)

Retrieved 2019/04/25 11:35 UTC (0 seconds ago):

KDLZ 251135Z AUTO 13005KT 10SM -RA SCT020 SCT050 OVC085 11/08 A2987 RMK AO2

TAF (pilot weather forecast)

Closest forecast is John Glenn Columbus International Airport, 19.8 nm (36.6 km) SSE. Retrieved 2019/04/25 06:33 UTC (5 hours ago):

TAF KCMH 250531Z 2506/2606 VRB02KT P6SM VCSH SCT025 OVC100 FM250800 VRB03KT P6SM VCSH OVC025 FM251100 14005KT P6SM VCSH OVC012 FM251700 17007KT 5SM -SHRA OVC015 FM252100 17007KT P6SM -SHRA VCTS BKN025CB OVC050 FM260000 18010KT 5SM -SHRA VCTS OVC035CB FM260400 19012KT 4SM -SHRA OVC025